River Forest, IL (60305)

12:16 AM CST on February 01, 2015 (GMT -0600)
Oak Park | Change Station
CLOSE
Current Station
Personal Weather Station
Location: Oak Park, IL
Elevation: 633 ft
Nearby Weather Stations
Active Advisory: Winter Storm Warning Active Notice: Local Storm Report

Elev 633 ft 41.91 °N, 87.80 °W | Updated 15 seconds ago

Snow
Snow
31.6 °F
Feels Like 32 °F
N
0.0
Wind Variable Wind from ESE
Gusts 0.0 mph

Today
High -- | Low -- °F
--% Chance of Precip.
Yesterday
High -- | Low -- °F
Precip. -- in
7:04 AM 5:06 PM
Waxing Gibbous, 93% visible
Pressure 30.16 in
Visibility 0.8 miles
Clouds Mostly Cloudy 500 ft
Overcast 1000 ft
Windchill 32 °F
Dew Point 30 °F
Humidity 95%
Rainfall 0.00 in
Snow Depth Not available.
UV 0 out of 12
Pollen .10 out of 12
Air Quality Not available.
Flu Activity Not available.
METAR KORD 010551Z COR 06007KT 3/4SM R10L/6000VP6000FT -SN BR BKN005 OVC010 M01/M02 A3014 RMK AO2 SLP213 P0003 60012 4/001 T10111017 10017 21011 400221072 58001

More Conditions Fewer Conditions

Pressure 30.16 in
Visibility 0.8 miles
Clouds Mostly Cloudy 500 ft
Overcast 1000 ft
Windchill 32 °F
Dew Point 30 °F
Humidity 95%
Rainfall 0.00 in
Snow Depth Not available.
UV 0 out of 12
Pollen .10 out of 12
Air Quality Not available.
Flu Activity Not available.
METAR KORD 010551Z COR 06007KT 3/4SM R10L/6000VP6000FT -SN BR BKN005 OVC010 M01/M02 A3014 RMK AO2 SLP213 P0003 60012 4/001 T10111017 10017 21011 400221072 58001

More Conditions Fewer Conditions

10-Day Weather Forecast

Almanac

Astronomy

Feb. 01, 2015 Rise Set
Actual Time
Civil Twilight
Nautical Twilight
Astronomical Twilight
Moon
Length of Visible Light
Length of Day
Tomorrow will be .
, % of the Moon is Illuminated

Today's Extremes

State Highs State Lows

Community

WunderPhotos

Upload Photos

1,792,322 photos uploaded!

WunderBlogs® & News

Nearby

Air Quality

  Air Quality AQ Index Pollutant
Not available.

Snow Depth

Station Depth Elevation

Earthquake Activity

City Distance Mag. Time & Date
Minimum magnitude displayed is 2.5.

Coastal Water Temperatures

Place Temperature

Nearby Weather Stations